sensor_id;sensor_type;location;lat;lon;timestamp;P1;durP1;ratioP1;P2;durP2;ratioP2
20523;SDS011;10420;48.542;12.270;2022-11-30T00:04:50;67.40;;;26.03;;
20523;SDS011;10420;48.542;12.270;2022-11-30T00:09:50;72.23;;;26.17;;
20523;SDS011;10420;48.542;12.270;2022-11-30T00:14:51;68.53;;;26.23;;
20523;SDS011;10420;48.542;12.270;2022-11-30T00:19:52;69.30;;;27.17;;
20523;SDS011;10420;48.542;12.270;2022-11-30T00:24:52;68.77;;;26.80;;
20523;SDS011;10420;48.542;12.270;2022-11-30T00:29:53;81.63;;;28.37;;
20523;SDS011;10420;48.542;12.270;2022-11-30T00:34:54;74.23;;;28.90;;
20523;SDS011;10420;48.542;12.270;2022-11-30T00:39:56;82.90;;;28.73;;
20523;SDS011;10420;48.542;12.270;2022-11-30T00:44:56;82.17;;;29.83;;
20523;SDS011;10420;48.542;12.270;2022-11-30T00:49:57;77.37;;;28.87;;
20523;SDS011;10420;48.542;12.270;2022-11-30T00:54:57;73.53;;;27.20;;
20523;SDS011;10420;48.542;12.270;2022-11-30T00:59:58;82.57;;;28.80;;
20523;SDS011;10420;48.542;12.270;2022-11-30T01:04:59;74.40;;;27.23;;
20523;SDS011;10420;48.542;12.270;2022-11-30T01:09:59;76.63;;;28.67;;
20523;SDS011;10420;48.542;12.270;2022-11-30T01:15:00;72.00;;;27.60;;
20523;SDS011;10420;48.542;12.270;2022-11-30T01:20:01;70.07;;;26.70;;
20523;SDS011;10420;48.542;12.270;2022-11-30T01:25:02;78.27;;;30.17;;
20523;SDS011;10420;48.542;12.270;2022-11-30T01:30:04;76.57;;;26.93;;
20523;SDS011;10420;48.542;12.270;2022-11-30T01:35:06;76.27;;;28.77;;
20523;SDS011;10420;48.542;12.270;2022-11-30T01:40:08;68.60;;;28.40;;
20523;SDS011;10420;48.542;12.270;2022-11-30T01:45:10;79.90;;;27.93;;
20523;SDS011;10420;48.542;12.270;2022-11-30T01:50:12;72.93;;;28.03;;
20523;SDS011;10420;48.542;12.270;2022-11-30T02:00:42;74.00;;;28.80;;
20523;SDS011;10420;48.542;12.270;2022-11-30T02:05:46;74.77;;;29.07;;
20523;SDS011;10420;48.542;12.270;2022-11-30T02:10:50;79.07;;;28.70;;
20523;SDS011;10420;48.542;12.270;2022-11-30T02:15:59;79.37;;;28.63;;
20523;SDS011;10420;48.542;12.270;2022-11-30T02:21:06;72.80;;;28.57;;
20523;SDS011;10420;48.542;12.270;2022-11-30T02:26:26;71.53;;;28.33;;
20523;SDS011;10420;48.542;12.270;2022-11-30T02:32:15;71.23;;;28.97;;
20523;SDS011;10420;48.542;12.270;2022-11-30T02:37:03;68.17;;;27.63;;
20523;SDS011;10420;48.542;12.270;2022-11-30T02:42:10;71.00;;;27.40;;
20523;SDS011;10420;48.542;12.270;2022-11-30T02:52:23;71.17;;;28.07;;
20523;SDS011;10420;48.542;12.270;2022-11-30T02:57:25;74.37;;;30.73;;
20523;SDS011;10420;48.542;12.270;2022-11-30T03:02:26;80.57;;;29.83;;
20523;SDS011;10420;48.542;12.270;2022-11-30T03:07:27;81.70;;;32.07;;
20523;SDS011;10420;48.542;12.270;2022-11-30T03:12:27;81.40;;;32.60;;
20523;SDS011;10420;48.542;12.270;2022-11-30T03:17:28;83.33;;;32.37;;
20523;SDS011;10420;48.542;12.270;2022-11-30T03:22:29;78.13;;;30.93;;
20523;SDS011;10420;48.542;12.270;2022-11-30T03:27:29;79.63;;;32.20;;
20523;SDS011;10420;48.542;12.270;2022-11-30T03:32:30;86.50;;;31.37;;
20523;SDS011;10420;48.542;12.270;2022-11-30T03:37:31;79.27;;;29.97;;
20523;SDS011;10420;48.542;12.270;2022-11-30T03:42:31;83.70;;;31.77;;
20523;SDS011;10420;48.542;12.270;2022-11-30T03:47:32;71.43;;;29.13;;
20523;SDS011;10420;48.542;12.270;2022-11-30T03:52:33;76.00;;;31.23;;
20523;SDS011;10420;48.542;12.270;2022-11-30T03:57:33;77.80;;;30.47;;
20523;SDS011;10420;48.542;12.270;2022-11-30T04:02:40;80.63;;;30.80;;
20523;SDS011;10420;48.542;12.270;2022-11-30T04:07:41;73.93;;;29.80;;
20523;SDS011;10420;48.542;12.270;2022-11-30T04:12:41;70.20;;;29.37;;
20523;SDS011;10420;48.542;12.270;2022-11-30T04:17:42;72.53;;;28.87;;
20523;SDS011;10420;48.542;12.270;2022-11-30T04:22:43;73.07;;;29.77;;
20523;SDS011;10420;48.542;12.270;2022-11-30T04:27:44;67.47;;;28.77;;
20523;SDS011;10420;48.542;12.270;2022-11-30T04:32:46;71.63;;;30.07;;
20523;SDS011;10420;48.542;12.270;2022-11-30T04:37:46;74.33;;;29.23;;
20523;SDS011;10420;48.542;12.270;2022-11-30T04:42:47;75.63;;;30.37;;
20523;SDS011;10420;48.542;12.270;2022-11-30T04:47:47;84.33;;;34.00;;
20523;SDS011;10420;48.542;12.270;2022-11-30T04:52:48;81.13;;;30.10;;
20523;SDS011;10420;48.542;12.270;2022-11-30T04:57:49;78.27;;;30.10;;
20523;SDS011;10420;48.542;12.270;2022-11-30T05:02:50;74.27;;;28.77;;
20523;SDS011;10420;48.542;12.270;2022-11-30T05:07:54;74.97;;;29.73;;
20523;SDS011;10420;48.542;12.270;2022-11-30T05:12:56;72.83;;;30.40;;
20523;SDS011;10420;48.542;12.270;2022-11-30T05:17:58;75.53;;;31.10;;
20523;SDS011;10420;48.542;12.270;2022-11-30T05:23:01;77.40;;;29.43;;
20523;SDS011;10420;48.542;12.270;2022-11-30T05:28:02;72.63;;;29.33;;
20523;SDS011;10420;48.542;12.270;2022-11-30T05:33:02;70.57;;;28.63;;
20523;SDS011;10420;48.542;12.270;2022-11-30T05:38:03;80.13;;;29.67;;
20523;SDS011;10420;48.542;12.270;2022-11-30T05:43:04;70.37;;;27.83;;
20523;SDS011;10420;48.542;12.270;2022-11-30T05:48:05;71.67;;;28.17;;
20523;SDS011;10420;48.542;12.270;2022-11-30T05:53:06;66.23;;;27.47;;
20523;SDS011;10420;48.542;12.270;2022-11-30T05:58:06;70.57;;;28.77;;
20523;SDS011;10420;48.542;12.270;2022-11-30T06:03:07;69.27;;;27.77;;
20523;SDS011;10420;48.542;12.270;2022-11-30T06:08:08;68.80;;;28.20;;
20523;SDS011;10420;48.542;12.270;2022-11-30T06:13:08;69.07;;;28.27;;
20523;SDS011;10420;48.542;12.270;2022-11-30T06:18:10;64.30;;;27.07;;
20523;SDS011;10420;48.542;12.270;2022-11-30T06:23:12;69.33;;;28.80;;
20523;SDS011;10420;48.542;12.270;2022-11-30T06:28:12;68.63;;;29.33;;
20523;SDS011;10420;48.542;12.270;2022-11-30T06:33:13;65.87;;;26.73;;
20523;SDS011;10420;48.542;12.270;2022-11-30T06:38:14;68.73;;;27.53;;
20523;SDS011;10420;48.542;12.270;2022-11-30T06:43:15;77.13;;;29.13;;
20523;SDS011;10420;48.542;12.270;2022-11-30T06:48:16;73.83;;;29.40;;
20523;SDS011;10420;48.542;12.270;2022-11-30T06:53:16;63.13;;;25.47;;
20523;SDS011;10420;48.542;12.270;2022-11-30T06:58:17;67.03;;;26.30;;
20523;SDS011;10420;48.542;12.270;2022-11-30T07:03:18;69.10;;;25.97;;
20523;SDS011;10420;48.542;12.270;2022-11-30T07:08:19;71.63;;;27.97;;
20523;SDS011;10420;48.542;12.270;2022-11-30T07:13:19;85.23;;;31.10;;
20523;SDS011;10420;48.542;12.270;2022-11-30T07:18:20;69.73;;;27.23;;
20523;SDS011;10420;48.542;12.270;2022-11-30T07:23:21;72.27;;;27.37;;
20523;SDS011;10420;48.542;12.270;2022-11-30T07:28:42;66.27;;;28.63;;
20523;SDS011;10420;48.542;12.270;2022-11-30T07:33:46;80.23;;;31.20;;
20523;SDS011;10420;48.542;12.270;2022-11-30T07:38:47;91.93;;;36.10;;
20523;SDS011;10420;48.542;12.270;2022-11-30T07:43:48;81.43;;;33.13;;
20523;SDS011;10420;48.542;12.270;2022-11-30T07:48:49;68.63;;;30.00;;
20523;SDS011;10420;48.542;12.270;2022-11-30T07:53:50;87.73;;;35.30;;
20523;SDS011;10420;48.542;12.270;2022-11-30T07:58:53;79.87;;;34.33;;
20523;SDS011;10420;48.542;12.270;2022-11-30T08:03:55;64.20;;;26.47;;
20523;SDS011;10420;48.542;12.270;2022-11-30T08:08:58;65.50;;;26.67;;
20523;SDS011;10420;48.542;12.270;2022-11-30T08:14:00;63.10;;;26.90;;
20523;SDS011;10420;48.542;12.270;2022-11-30T08:19:01;64.57;;;28.07;;
20523;SDS011;10420;48.542;12.270;2022-11-30T08:24:03;60.77;;;25.53;;
20523;SDS011;10420;48.542;12.270;2022-11-30T08:29:04;56.93;;;25.53;;
20523;SDS011;10420;48.542;12.270;2022-11-30T08:34:06;61.47;;;26.00;;
20523;SDS011;10420;48.542;12.270;2022-11-30T08:39:10;55.00;;;24.70;;
20523;SDS011;10420;48.542;12.270;2022-11-30T08:44:12;64.30;;;27.13;;
20523;SDS011;10420;48.542;12.270;2022-11-30T08:49:12;58.23;;;24.30;;
20523;SDS011;10420;48.542;12.270;2022-11-30T08:54:13;54.77;;;23.27;;
20523;SDS011;10420;48.542;12.270;2022-11-30T08:59:13;59.23;;;24.10;;
20523;SDS011;10420;48.542;12.270;2022-11-30T09:04:14;62.47;;;25.10;;
20523;SDS011;10420;48.542;12.270;2022-11-30T09:09:15;58.60;;;24.27;;
20523;SDS011;10420;48.542;12.270;2022-11-30T09:14:16;56.30;;;23.37;;
20523;SDS011;10420;48.542;12.270;2022-11-30T09:19:17;54.60;;;23.17;;
20523;SDS011;10420;48.542;12.270;2022-11-30T09:24:17;52.23;;;22.87;;
20523;SDS011;10420;48.542;12.270;2022-11-30T09:29:20;51.53;;;23.53;;
20523;SDS011;10420;48.542;12.270;2022-11-30T09:34:21;49.13;;;21.10;;
20523;SDS011;10420;48.542;12.270;2022-11-30T09:39:21;57.53;;;23.47;;
20523;SDS011;10420;48.542;12.270;2022-11-30T09:44:30;56.80;;;25.17;;
20523;SDS011;10420;48.542;12.270;2022-11-30T09:49:53;49.33;;;22.10;;
20523;SDS011;10420;48.542;12.270;2022-11-30T09:54:54;53.57;;;24.00;;
20523;SDS011;10420;48.542;12.270;2022-11-30T09:59:58;48.50;;;21.53;;
20523;SDS011;10420;48.542;12.270;2022-11-30T10:05:01;51.03;;;22.13;;
20523;SDS011;10420;48.542;12.270;2022-11-30T10:21:14;51.20;;;22.17;;
20523;SDS011;10420;48.542;12.270;2022-11-30T10:26:35;52.07;;;23.00;;
20523;SDS011;10420;48.542;12.270;2022-11-30T10:31:37;45.30;;;21.83;;
20523;SDS011;10420;48.542;12.270;2022-11-30T10:36:42;49.93;;;21.53;;
20523;SDS011;10420;48.542;12.270;2022-11-30T10:41:46;47.00;;;20.83;;
20523;SDS011;10420;48.542;12.270;2022-11-30T10:46:59;47.47;;;21.37;;
20523;SDS011;10420;48.542;12.270;2022-11-30T10:52:06;51.00;;;22.60;;
20523;SDS011;10420;48.542;12.270;2022-11-30T10:57:08;64.50;;;27.70;;
20523;SDS011;10420;48.542;12.270;2022-11-30T11:07:47;44.67;;;20.47;;
20523;SDS011;10420;48.542;12.270;2022-11-30T11:12:58;42.13;;;18.23;;
20523;SDS011;10420;48.542;12.270;2022-11-30T11:23:19;39.40;;;19.10;;
20523;SDS011;10420;48.542;12.270;2022-11-30T11:28:22;43.73;;;20.17;;
20523;SDS011;10420;48.542;12.270;2022-11-30T11:33:25;44.63;;;20.00;;
20523;SDS011;10420;48.542;12.270;2022-11-30T11:38:28;44.07;;;20.80;;
20523;SDS011;10420;48.542;12.270;2022-11-30T11:54:35;49.93;;;21.83;;
20523;SDS011;10420;48.542;12.270;2022-11-30T12:04:46;51.50;;;21.27;;
20523;SDS011;10420;48.542;12.270;2022-11-30T12:09:56;44.07;;;19.97;;
20523;SDS011;10420;48.542;12.270;2022-11-30T12:15:02;43.17;;;20.10;;
20523;SDS011;10420;48.542;12.270;2022-11-30T12:25:33;47.03;;;19.83;;
20523;SDS011;10420;48.542;12.270;2022-11-30T12:46:21;40.30;;;17.60;;
20523;SDS011;10420;48.542;12.270;2022-11-30T12:51:32;37.93;;;18.00;;
20523;SDS011;10420;48.542;12.270;2022-11-30T12:56:43;39.87;;;18.17;;
20523;SDS011;10420;48.542;12.270;2022-11-30T13:07:00;36.97;;;17.17;;
20523;SDS011;10420;48.542;12.270;2022-11-30T13:12:11;38.27;;;17.40;;
20523;SDS011;10420;48.542;12.270;2022-11-30T13:17:25;36.67;;;16.73;;
20523;SDS011;10420;48.542;12.270;2022-11-30T13:27:53;37.30;;;17.47;;
20523;SDS011;10420;48.542;12.270;2022-11-30T13:38:34;40.63;;;17.97;;
20523;SDS011;10420;48.542;12.270;2022-11-30T13:43:35;43.43;;;18.97;;
20523;SDS011;10420;48.542;12.270;2022-11-30T13:48:42;38.57;;;17.90;;
20523;SDS011;10420;48.542;12.270;2022-11-30T13:53:43;40.67;;;19.23;;
20523;SDS011;10420;48.542;12.270;2022-11-30T14:04:29;70.53;;;31.57;;
20523;SDS011;10420;48.542;12.270;2022-11-30T14:14:45;43.03;;;18.87;;
20523;SDS011;10420;48.542;12.270;2022-11-30T14:19:46;45.17;;;21.03;;
20523;SDS011;10420;48.542;12.270;2022-11-30T14:24:50;45.10;;;21.70;;
20523;SDS011;10420;48.542;12.270;2022-11-30T14:29:53;38.27;;;16.27;;
20523;SDS011;10420;48.542;12.270;2022-11-30T14:35:04;45.53;;;19.27;;
20523;SDS011;10420;48.542;12.270;2022-11-30T14:40:13;37.00;;;16.57;;
20523;SDS011;10420;48.542;12.270;2022-11-30T14:45:26;37.33;;;16.80;;
20523;SDS011;10420;48.542;12.270;2022-11-30T14:50:31;38.20;;;16.00;;
20523;SDS011;10420;48.542;12.270;2022-11-30T15:00:44;35.30;;;15.97;;
20523;SDS011;10420;48.542;12.270;2022-11-30T15:05:48;35.43;;;16.43;;
20523;SDS011;10420;48.542;12.270;2022-11-30T15:10:54;37.50;;;16.13;;
20523;SDS011;10420;48.542;12.270;2022-11-30T15:15:56;39.23;;;18.00;;
20523;SDS011;10420;48.542;12.270;2022-11-30T15:20:57;39.90;;;17.47;;
20523;SDS011;10420;48.542;12.270;2022-11-30T15:26:17;40.10;;;17.10;;
20523;SDS011;10420;48.542;12.270;2022-11-30T15:31:22;38.17;;;16.80;;
20523;SDS011;10420;48.542;12.270;2022-11-30T15:36:27;38.97;;;17.33;;
20523;SDS011;10420;48.542;12.270;2022-11-30T15:41:37;41.53;;;17.93;;
20523;SDS011;10420;48.542;12.270;2022-11-30T15:46:38;47.27;;;19.90;;
20523;SDS011;10420;48.542;12.270;2022-11-30T15:51:40;38.13;;;16.80;;
20523;SDS011;10420;48.542;12.270;2022-11-30T15:56:53;42.33;;;19.77;;
20523;SDS011;10420;48.542;12.270;2022-11-30T16:01:56;37.80;;;18.00;;
20523;SDS011;10420;48.542;12.270;2022-11-30T16:07:13;35.93;;;16.40;;
20523;SDS011;10420;48.542;12.270;2022-11-30T16:12:23;41.63;;;18.07;;
20523;SDS011;10420;48.542;12.270;2022-11-30T16:17:28;37.80;;;16.70;;
20523;SDS011;10420;48.542;12.270;2022-11-30T16:22:29;43.03;;;19.23;;
20523;SDS011;10420;48.542;12.270;2022-11-30T16:27:30;37.60;;;16.37;;
20523;SDS011;10420;48.542;12.270;2022-11-30T16:32:31;40.20;;;16.80;;
20523;SDS011;10420;48.542;12.270;2022-11-30T16:37:31;38.73;;;17.17;;
20523;SDS011;10420;48.542;12.270;2022-11-30T16:42:32;40.17;;;17.17;;
20523;SDS011;10420;48.542;12.270;2022-11-30T16:47:33;42.17;;;18.33;;
20523;SDS011;10420;48.542;12.270;2022-11-30T16:52:33;43.67;;;16.87;;
20523;SDS011;10420;48.542;12.270;2022-11-30T16:57:34;37.53;;;15.07;;
20523;SDS011;10420;48.542;12.270;2022-11-30T17:02:35;39.03;;;15.70;;
20523;SDS011;10420;48.542;12.270;2022-11-30T17:07:38;38.07;;;16.10;;
20523;SDS011;10420;48.542;12.270;2022-11-30T17:12:39;38.63;;;16.30;;
20523;SDS011;10420;48.542;12.270;2022-11-30T17:17:40;42.63;;;17.23;;
20523;SDS011;10420;48.542;12.270;2022-11-30T17:22:41;40.63;;;18.97;;
20523;SDS011;10420;48.542;12.270;2022-11-30T17:27:43;42.87;;;17.87;;
20523;SDS011;10420;48.542;12.270;2022-11-30T17:32:44;47.40;;;20.97;;
20523;SDS011;10420;48.542;12.270;2022-11-30T17:37:45;43.20;;;17.43;;
20523;SDS011;10420;48.542;12.270;2022-11-30T17:42:45;57.23;;;21.50;;
20523;SDS011;10420;48.542;12.270;2022-11-30T17:47:46;82.40;;;35.33;;
20523;SDS011;10420;48.542;12.270;2022-11-30T17:52:47;91.80;;;37.23;;
20523;SDS011;10420;48.542;12.270;2022-11-30T17:57:47;46.80;;;21.33;;
20523;SDS011;10420;48.542;12.270;2022-11-30T18:02:49;54.73;;;22.07;;
20523;SDS011;10420;48.542;12.270;2022-11-30T18:07:51;56.70;;;25.07;;
20523;SDS011;10420;48.542;12.270;2022-11-30T18:12:51;50.23;;;21.23;;
20523;SDS011;10420;48.542;12.270;2022-11-30T18:17:52;45.50;;;19.03;;
20523;SDS011;10420;48.542;12.270;2022-11-30T18:22:54;45.63;;;19.40;;
20523;SDS011;10420;48.542;12.270;2022-11-30T18:27:54;54.23;;;20.27;;
20523;SDS011;10420;48.542;12.270;2022-11-30T18:32:55;44.67;;;17.77;;
20523;SDS011;10420;48.542;12.270;2022-11-30T18:37:56;180.07;;;74.50;;
20523;SDS011;10420;48.542;12.270;2022-11-30T18:42:56;50.23;;;22.80;;
20523;SDS011;10420;48.542;12.270;2022-11-30T18:47:57;46.27;;;19.30;;
20523;SDS011;10420;48.542;12.270;2022-11-30T18:52:58;49.90;;;21.33;;
20523;SDS011;10420;48.542;12.270;2022-11-30T18:57:59;50.07;;;20.07;;
20523;SDS011;10420;48.542;12.270;2022-11-30T19:03:00;49.83;;;19.47;;
20523;SDS011;10420;48.542;12.270;2022-11-30T19:08:01;42.57;;;18.80;;
20523;SDS011;10420;48.542;12.270;2022-11-30T19:13:12;51.37;;;22.03;;
20523;SDS011;10420;48.542;12.270;2022-11-30T19:18:13;48.80;;;21.07;;
20523;SDS011;10420;48.542;12.270;2022-11-30T19:23:14;45.97;;;21.50;;
20523;SDS011;10420;48.542;12.270;2022-11-30T19:28:15;48.90;;;21.20;;
20523;SDS011;10420;48.542;12.270;2022-11-30T19:33:16;43.07;;;19.63;;
20523;SDS011;10420;48.542;12.270;2022-11-30T19:38:17;44.10;;;19.40;;
20523;SDS011;10420;48.542;12.270;2022-11-30T19:43:17;44.33;;;19.10;;
20523;SDS011;10420;48.542;12.270;2022-11-30T19:48:18;62.27;;;25.60;;
20523;SDS011;10420;48.542;12.270;2022-11-30T19:53:19;54.77;;;24.10;;
20523;SDS011;10420;48.542;12.270;2022-11-30T19:58:21;55.27;;;23.60;;
20523;SDS011;10420;48.542;12.270;2022-11-30T20:03:21;66.57;;;26.70;;
20523;SDS011;10420;48.542;12.270;2022-11-30T20:08:22;51.07;;;21.63;;
20523;SDS011;10420;48.542;12.270;2022-11-30T20:13:23;52.57;;;22.63;;
20523;SDS011;10420;48.542;12.270;2022-11-30T20:18:23;54.00;;;21.93;;
20523;SDS011;10420;48.542;12.270;2022-11-30T20:23:24;58.93;;;24.43;;
20523;SDS011;10420;48.542;12.270;2022-11-30T20:28:25;73.73;;;27.27;;
20523;SDS011;10420;48.542;12.270;2022-11-30T20:33:25;105.00;;;44.70;;
20523;SDS011;10420;48.542;12.270;2022-11-30T20:38:26;56.03;;;23.03;;
20523;SDS011;10420;48.542;12.270;2022-11-30T20:43:28;50.63;;;22.17;;
20523;SDS011;10420;48.542;12.270;2022-11-30T20:48:29;56.23;;;23.93;;
20523;SDS011;10420;48.542;12.270;2022-11-30T20:53:32;50.97;;;21.33;;
20523;SDS011;10420;48.542;12.270;2022-11-30T20:58:33;55.10;;;23.50;;
20523;SDS011;10420;48.542;12.270;2022-11-30T21:03:34;51.73;;;21.93;;
20523;SDS011;10420;48.542;12.270;2022-11-30T21:08:36;52.03;;;21.40;;
20523;SDS011;10420;48.542;12.270;2022-11-30T21:13:38;51.50;;;22.40;;
20523;SDS011;10420;48.542;12.270;2022-11-30T21:18:41;50.37;;;20.80;;
20523;SDS011;10420;48.542;12.270;2022-11-30T21:23:43;53.67;;;20.30;;
20523;SDS011;10420;48.542;12.270;2022-11-30T21:28:44;51.10;;;21.43;;
20523;SDS011;10420;48.542;12.270;2022-11-30T21:33:46;52.77;;;21.20;;
20523;SDS011;10420;48.542;12.270;2022-11-30T21:38:47;51.80;;;22.00;;
20523;SDS011;10420;48.542;12.270;2022-11-30T21:43:52;57.60;;;24.33;;
20523;SDS011;10420;48.542;12.270;2022-11-30T21:48:52;67.20;;;26.67;;
20523;SDS011;10420;48.542;12.270;2022-11-30T21:53:54;66.27;;;26.90;;
20523;SDS011;10420;48.542;12.270;2022-11-30T21:58:56;64.03;;;24.23;;
20523;SDS011;10420;48.542;12.270;2022-11-30T22:03:58;54.90;;;23.20;;
20523;SDS011;10420;48.542;12.270;2022-11-30T22:09:02;53.90;;;23.23;;
20523;SDS011;10420;48.542;12.270;2022-11-30T22:14:09;52.87;;;22.93;;
20523;SDS011;10420;48.542;12.270;2022-11-30T22:19:12;62.47;;;24.47;;
20523;SDS011;10420;48.542;12.270;2022-11-30T22:24:13;53.07;;;23.20;;
20523;SDS011;10420;48.542;12.270;2022-11-30T22:29:18;57.87;;;23.43;;
20523;SDS011;10420;48.542;12.270;2022-11-30T22:34:21;55.80;;;23.13;;
20523;SDS011;10420;48.542;12.270;2022-11-30T22:39:21;56.90;;;23.80;;
20523;SDS011;10420;48.542;12.270;2022-11-30T22:44:23;57.80;;;23.37;;
20523;SDS011;10420;48.542;12.270;2022-11-30T22:49:24;52.23;;;22.63;;
20523;SDS011;10420;48.542;12.270;2022-11-30T22:54:25;54.50;;;23.20;;
20523;SDS011;10420;48.542;12.270;2022-11-30T22:59:25;56.87;;;24.47;;
20523;SDS011;10420;48.542;12.270;2022-11-30T23:04:26;60.23;;;23.83;;
20523;SDS011;10420;48.542;12.270;2022-11-30T23:09:27;59.23;;;23.87;;
20523;SDS011;10420;48.542;12.270;2022-11-30T23:14:27;60.83;;;23.47;;
20523;SDS011;10420;48.542;12.270;2022-11-30T23:19:28;55.50;;;23.53;;
20523;SDS011;10420;48.542;12.270;2022-11-30T23:24:28;60.30;;;24.27;;
20523;SDS011;10420;48.542;12.270;2022-11-30T23:29:30;56.77;;;24.43;;
20523;SDS011;10420;48.542;12.270;2022-11-30T23:34:31;59.87;;;26.03;;
20523;SDS011;10420;48.542;12.270;2022-11-30T23:39:32;60.87;;;25.57;;
20523;SDS011;10420;48.542;12.270;2022-11-30T23:44:33;59.17;;;24.13;;
20523;SDS011;10420;48.542;12.270;2022-11-30T23:49:33;57.53;;;24.50;;
20523;SDS011;10420;48.542;12.270;2022-11-30T23:54:34;63.20;;;25.77;;
20523;SDS011;10420;48.542;12.270;2022-11-30T23:59:35;56.13;;;24.40;;
